sensor_id;sensor_type;location;lat;lon;timestamp;P1;durP1;ratioP1;P2;durP2;ratioP2
38940;SDS011;43236;47.208;7.518;2023-01-24T00:01:25;27.00;;;12.20;;
38940;SDS011;43236;47.208;7.518;2023-01-24T00:04:12;29.75;;;11.10;;
38940;SDS011;43236;47.208;7.518;2023-01-24T00:06:59;27.73;;;11.98;;
38940;SDS011;43236;47.208;7.518;2023-01-24T00:09:46;29.42;;;12.27;;
38940;SDS011;43236;47.208;7.518;2023-01-24T00:12:33;25.85;;;12.02;;
38940;SDS011;43236;47.208;7.518;2023-01-24T00:15:20;25.05;;;11.57;;
38940;SDS011;43236;47.208;7.518;2023-01-24T00:18:08;27.42;;;12.50;;
38940;SDS011;43236;47.208;7.518;2023-01-24T00:20:59;28.98;;;12.05;;
38940;SDS011;43236;47.208;7.518;2023-01-24T00:23:47;28.73;;;12.25;;
38940;SDS011;43236;47.208;7.518;2023-01-24T00:26:36;29.00;;;11.75;;
38940;SDS011;43236;47.208;7.518;2023-01-24T00:29:23;29.90;;;12.23;;
38940;SDS011;43236;47.208;7.518;2023-01-24T00:32:10;30.45;;;13.07;;
38940;SDS011;43236;47.208;7.518;2023-01-24T00:34:58;25.65;;;12.70;;
38940;SDS011;43236;47.208;7.518;2023-01-24T00:37:46;23.42;;;11.27;;
38940;SDS011;43236;47.208;7.518;2023-01-24T00:40:33;31.30;;;13.02;;
38940;SDS011;43236;47.208;7.518;2023-01-24T00:43:20;26.75;;;11.82;;
38940;SDS011;43236;47.208;7.518;2023-01-24T00:46:07;26.25;;;12.00;;
38940;SDS011;43236;47.208;7.518;2023-01-24T00:48:55;27.90;;;11.73;;
38940;SDS011;43236;47.208;7.518;2023-01-24T00:51:43;24.75;;;11.32;;
38940;SDS011;43236;47.208;7.518;2023-01-24T00:54:30;23.60;;;11.07;;
38940;SDS011;43236;47.208;7.518;2023-01-24T00:57:17;25.92;;;10.88;;
38940;SDS011;43236;47.208;7.518;2023-01-24T01:00:07;22.88;;;11.32;;
38940;SDS011;43236;47.208;7.518;2023-01-24T01:02:55;26.75;;;11.57;;
38940;SDS011;43236;47.208;7.518;2023-01-24T01:05:42;27.25;;;11.55;;
38940;SDS011;43236;47.208;7.518;2023-01-24T01:08:31;22.35;;;10.20;;
38940;SDS011;43236;47.208;7.518;2023-01-24T01:11:18;23.85;;;11.80;;
38940;SDS011;43236;47.208;7.518;2023-01-24T01:14:05;23.65;;;10.43;;
38940;SDS011;43236;47.208;7.518;2023-01-24T01:16:52;29.48;;;11.65;;
38940;SDS011;43236;47.208;7.518;2023-01-24T01:19:39;23.98;;;11.13;;
38940;SDS011;43236;47.208;7.518;2023-01-24T01:22:26;24.80;;;11.20;;
38940;SDS011;43236;47.208;7.518;2023-01-24T01:25:15;28.77;;;12.32;;
38940;SDS011;43236;47.208;7.518;2023-01-24T01:28:02;25.48;;;11.45;;
38940;SDS011;43236;47.208;7.518;2023-01-24T01:30:51;25.42;;;12.68;;
38940;SDS011;43236;47.208;7.518;2023-01-24T01:33:39;29.13;;;12.05;;
38940;SDS011;43236;47.208;7.518;2023-01-24T01:36:26;22.33;;;10.95;;
38940;SDS011;43236;47.208;7.518;2023-01-24T01:39:13;27.58;;;12.02;;
38940;SDS011;43236;47.208;7.518;2023-01-24T01:42:02;26.90;;;11.68;;
38940;SDS011;43236;47.208;7.518;2023-01-24T01:44:49;25.10;;;12.38;;
38940;SDS011;43236;47.208;7.518;2023-01-24T01:47:36;27.15;;;12.13;;
38940;SDS011;43236;47.208;7.518;2023-01-24T01:50:24;26.95;;;11.30;;
38940;SDS011;43236;47.208;7.518;2023-01-24T01:53:16;26.58;;;11.88;;
38940;SDS011;43236;47.208;7.518;2023-01-24T01:56:05;26.40;;;12.40;;
38940;SDS011;43236;47.208;7.518;2023-01-24T01:58:58;25.00;;;11.35;;
38940;SDS011;43236;47.208;7.518;2023-01-24T02:01:50;25.00;;;11.85;;
38940;SDS011;43236;47.208;7.518;2023-01-24T02:04:41;26.50;;;12.38;;
38940;SDS011;43236;47.208;7.518;2023-01-24T02:07:33;26.60;;;11.85;;
38940;SDS011;43236;47.208;7.518;2023-01-24T02:10:25;26.20;;;11.32;;
38940;SDS011;43236;47.208;7.518;2023-01-24T02:13:34;21.00;;;11.40;;
38940;SDS011;43236;47.208;7.518;2023-01-24T02:16:25;23.67;;;11.77;;
38940;SDS011;43236;47.208;7.518;2023-01-24T02:19:14;26.38;;;11.68;;
38940;SDS011;43236;47.208;7.518;2023-01-24T02:22:11;29.58;;;11.82;;
38940;SDS011;43236;47.208;7.518;2023-01-24T02:25:02;23.02;;;11.15;;
38940;SDS011;43236;47.208;7.518;2023-01-24T02:30:44;25.58;;;11.70;;
38940;SDS011;43236;47.208;7.518;2023-01-24T02:33:32;24.88;;;10.55;;
38940;SDS011;43236;47.208;7.518;2023-01-24T02:36:21;24.80;;;11.25;;
38940;SDS011;43236;47.208;7.518;2023-01-24T02:39:13;28.95;;;12.20;;
38940;SDS011;43236;47.208;7.518;2023-01-24T02:42:03;25.30;;;12.30;;
38940;SDS011;43236;47.208;7.518;2023-01-24T02:44:56;27.88;;;11.70;;
38940;SDS011;43236;47.208;7.518;2023-01-24T02:47:49;25.92;;;11.55;;
38940;SDS011;43236;47.208;7.518;2023-01-24T02:50:37;31.30;;;12.30;;
38940;SDS011;43236;47.208;7.518;2023-01-24T02:53:56;23.55;;;11.10;;
38940;SDS011;43236;47.208;7.518;2023-01-24T02:56:43;22.98;;;11.50;;
38940;SDS011;43236;47.208;7.518;2023-01-24T03:00:04;23.70;;;11.32;;
38940;SDS011;43236;47.208;7.518;2023-01-24T03:02:52;24.30;;;11.35;;
38940;SDS011;43236;47.208;7.518;2023-01-24T03:05:39;25.80;;;11.63;;
38940;SDS011;43236;47.208;7.518;2023-01-24T03:08:41;26.15;;;11.95;;
38940;SDS011;43236;47.208;7.518;2023-01-24T03:11:29;27.73;;;11.52;;
38940;SDS011;43236;47.208;7.518;2023-01-24T03:14:16;25.35;;;11.40;;
38940;SDS011;43236;47.208;7.518;2023-01-24T03:17:22;25.08;;;11.90;;
38940;SDS011;43236;47.208;7.518;2023-01-24T03:20:26;22.10;;;10.10;;
38940;SDS011;43236;47.208;7.518;2023-01-24T03:23:31;20.17;;;10.43;;
38940;SDS011;43236;47.208;7.518;2023-01-24T03:26:36;20.38;;;10.23;;
38940;SDS011;43236;47.208;7.518;2023-01-24T03:29:40;22.50;;;10.73;;
38940;SDS011;43236;47.208;7.518;2023-01-24T03:32:46;23.48;;;10.93;;
38940;SDS011;43236;47.208;7.518;2023-01-24T03:35:51;21.67;;;10.60;;
38940;SDS011;43236;47.208;7.518;2023-01-24T03:38:41;24.52;;;10.32;;
38940;SDS011;43236;47.208;7.518;2023-01-24T03:41:45;23.85;;;10.48;;
38940;SDS011;43236;47.208;7.518;2023-01-24T03:44:32;23.63;;;10.88;;
38940;SDS011;43236;47.208;7.518;2023-01-24T03:47:19;24.50;;;11.13;;
38940;SDS011;43236;47.208;7.518;2023-01-24T03:50:09;22.95;;;10.38;;
38940;SDS011;43236;47.208;7.518;2023-01-24T03:53:13;20.17;;;10.15;;
38940;SDS011;43236;47.208;7.518;2023-01-24T03:56:01;21.60;;;10.45;;
38940;SDS011;43236;47.208;7.518;2023-01-24T03:58:49;22.67;;;10.48;;
38940;SDS011;43236;47.208;7.518;2023-01-24T04:01:38;22.23;;;10.90;;
38940;SDS011;43236;47.208;7.518;2023-01-24T04:04:25;22.30;;;9.70;;
38940;SDS011;43236;47.208;7.518;2023-01-24T04:07:34;22.67;;;10.38;;
38940;SDS011;43236;47.208;7.518;2023-01-24T04:10:21;25.25;;;11.23;;
38940;SDS011;43236;47.208;7.518;2023-01-24T04:13:09;24.13;;;9.93;;
38940;SDS011;43236;47.208;7.518;2023-01-24T04:15:56;20.85;;;9.88;;
38940;SDS011;43236;47.208;7.518;2023-01-24T04:18:43;19.55;;;9.95;;
38940;SDS011;43236;47.208;7.518;2023-01-24T04:21:30;20.98;;;9.57;;
38940;SDS011;43236;47.208;7.518;2023-01-24T04:24:18;22.58;;;10.38;;
38940;SDS011;43236;47.208;7.518;2023-01-24T04:27:05;18.67;;;9.32;;
38940;SDS011;43236;47.208;7.518;2023-01-24T04:29:52;20.85;;;9.15;;
38940;SDS011;43236;47.208;7.518;2023-01-24T04:32:39;21.35;;;9.93;;
38940;SDS011;43236;47.208;7.518;2023-01-24T04:35:28;20.42;;;9.45;;
38940;SDS011;43236;47.208;7.518;2023-01-24T04:38:15;19.42;;;9.95;;
38940;SDS011;43236;47.208;7.518;2023-01-24T04:41:04;17.98;;;9.55;;
38940;SDS011;43236;47.208;7.518;2023-01-24T04:43:51;17.55;;;9.68;;
38940;SDS011;43236;47.208;7.518;2023-01-24T04:46:38;21.63;;;9.85;;
38940;SDS011;43236;47.208;7.518;2023-01-24T04:49:25;21.63;;;9.27;;
38940;SDS011;43236;47.208;7.518;2023-01-24T04:52:12;21.17;;;9.77;;
38940;SDS011;43236;47.208;7.518;2023-01-24T04:54:59;24.70;;;10.48;;
38940;SDS011;43236;47.208;7.518;2023-01-24T04:57:48;18.42;;;10.02;;
38940;SDS011;43236;47.208;7.518;2023-01-24T05:00:35;24.27;;;10.45;;
38940;SDS011;43236;47.208;7.518;2023-01-24T05:03:22;21.35;;;10.20;;
38940;SDS011;43236;47.208;7.518;2023-01-24T05:06:09;22.60;;;9.77;;
38940;SDS011;43236;47.208;7.518;2023-01-24T05:08:56;17.50;;;9.90;;
38940;SDS011;43236;47.208;7.518;2023-01-24T05:11:43;17.45;;;9.50;;
38940;SDS011;43236;47.208;7.518;2023-01-24T05:14:32;19.50;;;9.48;;
38940;SDS011;43236;47.208;7.518;2023-01-24T05:17:19;23.02;;;10.45;;
38940;SDS011;43236;47.208;7.518;2023-01-24T05:20:06;20.27;;;10.30;;
38940;SDS011;43236;47.208;7.518;2023-01-24T05:22:54;23.38;;;9.98;;
38940;SDS011;43236;47.208;7.518;2023-01-24T05:25:41;22.75;;;11.05;;
38940;SDS011;43236;47.208;7.518;2023-01-24T05:28:28;19.00;;;10.00;;
38940;SDS011;43236;47.208;7.518;2023-01-24T05:31:17;19.48;;;10.55;;
38940;SDS011;43236;47.208;7.518;2023-01-24T05:34:04;20.63;;;10.15;;
38940;SDS011;43236;47.208;7.518;2023-01-24T05:36:51;17.85;;;8.95;;
38940;SDS011;43236;47.208;7.518;2023-01-24T05:39:38;20.55;;;10.25;;
38940;SDS011;43236;47.208;7.518;2023-01-24T05:42:25;22.15;;;10.57;;
38940;SDS011;43236;47.208;7.518;2023-01-24T05:45:12;21.13;;;10.55;;
38940;SDS011;43236;47.208;7.518;2023-01-24T05:48:01;20.92;;;10.32;;
38940;SDS011;43236;47.208;7.518;2023-01-24T05:50:48;22.30;;;10.70;;
38940;SDS011;43236;47.208;7.518;2023-01-24T05:53:36;20.73;;;10.70;;
38940;SDS011;43236;47.208;7.518;2023-01-24T05:56:24;23.98;;;10.57;;
38940;SDS011;43236;47.208;7.518;2023-01-24T05:59:13;22.55;;;10.77;;
38940;SDS011;43236;47.208;7.518;2023-01-24T06:02:00;21.63;;;10.43;;
38940;SDS011;43236;47.208;7.518;2023-01-24T06:04:48;21.73;;;10.90;;
38940;SDS011;43236;47.208;7.518;2023-01-24T06:07:35;21.63;;;10.55;;
38940;SDS011;43236;47.208;7.518;2023-01-24T06:10:22;24.27;;;10.95;;
38940;SDS011;43236;47.208;7.518;2023-01-24T06:13:09;26.08;;;11.18;;
38940;SDS011;43236;47.208;7.518;2023-01-24T06:16:00;22.05;;;11.30;;
38940;SDS011;43236;47.208;7.518;2023-01-24T06:18:48;23.30;;;11.43;;
38940;SDS011;43236;47.208;7.518;2023-01-24T06:21:40;23.10;;;11.07;;
38940;SDS011;43236;47.208;7.518;2023-01-24T06:24:30;30.83;;;11.98;;
38940;SDS011;43236;47.208;7.518;2023-01-24T06:27:18;23.33;;;10.80;;
38940;SDS011;43236;47.208;7.518;2023-01-24T06:30:06;21.55;;;10.63;;
38940;SDS011;43236;47.208;7.518;2023-01-24T06:33:05;29.30;;;11.90;;
38940;SDS011;43236;47.208;7.518;2023-01-24T06:36:05;25.00;;;11.88;;
38940;SDS011;43236;47.208;7.518;2023-01-24T06:39:16;28.35;;;12.07;;
38940;SDS011;43236;47.208;7.518;2023-01-24T06:42:03;25.23;;;12.40;;
38940;SDS011;43236;47.208;7.518;2023-01-24T06:44:51;25.35;;;12.60;;
38940;SDS011;43236;47.208;7.518;2023-01-24T06:47:38;24.33;;;12.50;;
38940;SDS011;43236;47.208;7.518;2023-01-24T06:50:25;25.98;;;12.45;;
38940;SDS011;43236;47.208;7.518;2023-01-24T06:53:16;28.25;;;12.95;;
38940;SDS011;43236;47.208;7.518;2023-01-24T06:56:05;28.15;;;13.85;;
38940;SDS011;43236;47.208;7.518;2023-01-24T06:58:53;27.60;;;13.18;;
38940;SDS011;43236;47.208;7.518;2023-01-24T07:01:40;31.88;;;13.63;;
38940;SDS011;43236;47.208;7.518;2023-01-24T07:04:27;26.85;;;12.18;;
38940;SDS011;43236;47.208;7.518;2023-01-24T07:07:14;30.17;;;13.57;;
38940;SDS011;43236;47.208;7.518;2023-01-24T07:10:01;24.15;;;12.05;;
38940;SDS011;43236;47.208;7.518;2023-01-24T07:12:50;26.73;;;13.40;;
38940;SDS011;43236;47.208;7.518;2023-01-24T07:15:37;25.00;;;12.98;;
38940;SDS011;43236;47.208;7.518;2023-01-24T07:18:24;27.52;;;12.60;;
38940;SDS011;43236;47.208;7.518;2023-01-24T07:21:12;29.52;;;12.05;;
38940;SDS011;43236;47.208;7.518;2023-01-24T07:23:59;21.35;;;10.25;;
38940;SDS011;43236;47.208;7.518;2023-01-24T07:26:46;23.70;;;10.48;;
38940;SDS011;43236;47.208;7.518;2023-01-24T07:29:37;21.45;;;10.63;;
38940;SDS011;43236;47.208;7.518;2023-01-24T07:32:24;23.75;;;10.63;;
38940;SDS011;43236;47.208;7.518;2023-01-24T07:35:11;22.55;;;10.60;;
38940;SDS011;43236;47.208;7.518;2023-01-24T07:37:58;23.77;;;10.32;;
38940;SDS011;43236;47.208;7.518;2023-01-24T07:40:46;21.73;;;10.80;;
38940;SDS011;43236;47.208;7.518;2023-01-24T07:43:33;21.25;;;11.05;;
38940;SDS011;43236;47.208;7.518;2023-01-24T07:46:21;21.42;;;10.70;;
38940;SDS011;43236;47.208;7.518;2023-01-24T07:49:08;21.17;;;11.10;;
38940;SDS011;43236;47.208;7.518;2023-01-24T07:51:55;20.58;;;11.07;;
38940;SDS011;43236;47.208;7.518;2023-01-24T07:54:42;20.88;;;10.00;;
38940;SDS011;43236;47.208;7.518;2023-01-24T07:57:29;25.27;;;11.13;;
38940;SDS011;43236;47.208;7.518;2023-01-24T08:00:16;25.77;;;10.82;;
38940;SDS011;43236;47.208;7.518;2023-01-24T08:03:05;21.33;;;10.68;;
38940;SDS011;43236;47.208;7.518;2023-01-24T08:05:54;24.77;;;11.43;;
38940;SDS011;43236;47.208;7.518;2023-01-24T08:08:41;26.15;;;11.50;;
38940;SDS011;43236;47.208;7.518;2023-01-24T08:11:28;20.20;;;10.13;;
38940;SDS011;43236;47.208;7.518;2023-01-24T08:14:15;21.52;;;10.23;;
38940;SDS011;43236;47.208;7.518;2023-01-24T08:17:02;20.85;;;10.50;;
38940;SDS011;43236;47.208;7.518;2023-01-24T08:19:51;22.35;;;10.38;;
38940;SDS011;43236;47.208;7.518;2023-01-24T08:22:38;21.13;;;10.85;;
38940;SDS011;43236;47.208;7.518;2023-01-24T08:25:25;24.23;;;10.65;;
38940;SDS011;43236;47.208;7.518;2023-01-24T08:28:13;21.58;;;10.35;;
38940;SDS011;43236;47.208;7.518;2023-01-24T08:31:00;22.25;;;10.88;;
38940;SDS011;43236;47.208;7.518;2023-01-24T08:33:47;20.95;;;10.30;;
38940;SDS011;43236;47.208;7.518;2023-01-24T08:36:36;23.83;;;10.75;;
38940;SDS011;43236;47.208;7.518;2023-01-24T08:39:23;20.35;;;10.10;;
38940;SDS011;43236;47.208;7.518;2023-01-24T08:42:10;22.27;;;10.77;;
38940;SDS011;43236;47.208;7.518;2023-01-24T08:44:57;21.38;;;10.70;;
38940;SDS011;43236;47.208;7.518;2023-01-24T08:47:44;20.85;;;10.68;;
38940;SDS011;43236;47.208;7.518;2023-01-24T08:50:36;19.80;;;10.25;;
38940;SDS011;43236;47.208;7.518;2023-01-24T08:53:24;22.17;;;11.65;;
38940;SDS011;43236;47.208;7.518;2023-01-24T08:56:11;26.23;;;11.98;;
38940;SDS011;43236;47.208;7.518;2023-01-24T08:58:59;25.08;;;11.93;;
38940;SDS011;43236;47.208;7.518;2023-01-24T09:01:46;22.20;;;10.55;;
38940;SDS011;43236;47.208;7.518;2023-01-24T09:04:33;21.90;;;10.55;;
38940;SDS011;43236;47.208;7.518;2023-01-24T09:07:20;23.42;;;10.40;;
38940;SDS011;43236;47.208;7.518;2023-01-24T09:10:09;24.50;;;11.02;;
38940;SDS011;43236;47.208;7.518;2023-01-24T09:12:56;20.67;;;10.23;;
38940;SDS011;43236;47.208;7.518;2023-01-24T09:15:44;21.35;;;10.35;;
38940;SDS011;43236;47.208;7.518;2023-01-24T09:18:31;23.60;;;10.10;;
38940;SDS011;43236;47.208;7.518;2023-01-24T09:21:18;21.45;;;11.50;;
38940;SDS011;43236;47.208;7.518;2023-01-24T09:24:05;20.80;;;10.43;;
38940;SDS011;43236;47.208;7.518;2023-01-24T09:26:54;24.30;;;10.70;;
38940;SDS011;43236;47.208;7.518;2023-01-24T09:29:41;22.60;;;10.68;;
38940;SDS011;43236;47.208;7.518;2023-01-24T09:32:28;22.42;;;10.57;;
38940;SDS011;43236;47.208;7.518;2023-01-24T09:35:15;21.45;;;9.95;;
38940;SDS011;43236;47.208;7.518;2023-01-24T09:38:02;23.63;;;11.40;;
38940;SDS011;43236;47.208;7.518;2023-01-24T09:40:51;21.88;;;10.48;;
38940;SDS011;43236;47.208;7.518;2023-01-24T09:43:44;26.70;;;10.90;;
38940;SDS011;43236;47.208;7.518;2023-01-24T09:46:35;25.00;;;10.18;;
38940;SDS011;43236;47.208;7.518;2023-01-24T09:49:34;21.45;;;10.55;;
38940;SDS011;43236;47.208;7.518;2023-01-24T09:52:30;21.13;;;10.00;;
38940;SDS011;43236;47.208;7.518;2023-01-24T09:55:21;22.48;;;9.82;;
38940;SDS011;43236;47.208;7.518;2023-01-24T09:58:15;30.02;;;10.88;;
38940;SDS011;43236;47.208;7.518;2023-01-24T10:01:18;24.08;;;9.77;;
38940;SDS011;43236;47.208;7.518;2023-01-24T10:04:07;22.52;;;10.50;;
38940;SDS011;43236;47.208;7.518;2023-01-24T10:07:12;20.98;;;9.93;;
38940;SDS011;43236;47.208;7.518;2023-01-24T10:10:13;19.58;;;9.77;;
38940;SDS011;43236;47.208;7.518;2023-01-24T10:13:21;21.40;;;9.88;;
38940;SDS011;43236;47.208;7.518;2023-01-24T10:16:34;27.23;;;11.45;;
38940;SDS011;43236;47.208;7.518;2023-01-24T10:19:48;27.52;;;12.25;;
38940;SDS011;43236;47.208;7.518;2023-01-24T10:22:57;26.92;;;11.60;;
38940;SDS011;43236;47.208;7.518;2023-01-24T10:25:50;23.77;;;10.52;;
38940;SDS011;43236;47.208;7.518;2023-01-24T10:28:40;23.60;;;10.57;;
38940;SDS011;43236;47.208;7.518;2023-01-24T10:31:34;21.65;;;10.68;;
38940;SDS011;43236;47.208;7.518;2023-01-24T10:34:27;23.10;;;11.10;;
38940;SDS011;43236;47.208;7.518;2023-01-24T10:37:20;24.20;;;10.43;;
38940;SDS011;43236;47.208;7.518;2023-01-24T10:40:11;20.58;;;10.18;;
38940;SDS011;43236;47.208;7.518;2023-01-24T10:43:03;25.88;;;10.77;;
38940;SDS011;43236;47.208;7.518;2023-01-24T10:45:55;24.05;;;10.18;;
38940;SDS011;43236;47.208;7.518;2023-01-24T10:48:52;22.98;;;10.45;;
38940;SDS011;43236;47.208;7.518;2023-01-24T10:51:41;22.90;;;10.93;;
38940;SDS011;43236;47.208;7.518;2023-01-24T10:54:28;22.20;;;10.93;;
38940;SDS011;43236;47.208;7.518;2023-01-24T10:57:20;27.95;;;11.90;;
38940;SDS011;43236;47.208;7.518;2023-01-24T11:00:27;67.90;;;20.27;;
38940;SDS011;43236;47.208;7.518;2023-01-24T11:03:17;118.95;;;31.90;;
38940;SDS011;43236;47.208;7.518;2023-01-24T11:06:21;55.97;;;19.33;;
38940;SDS011;43236;47.208;7.518;2023-01-24T11:09:10;26.60;;;11.52;;
38940;SDS011;43236;47.208;7.518;2023-01-24T11:11:59;22.83;;;11.40;;
38940;SDS011;43236;47.208;7.518;2023-01-24T11:14:47;18.83;;;9.88;;
38940;SDS011;43236;47.208;7.518;2023-01-24T11:17:35;22.15;;;10.27;;
38940;SDS011;43236;47.208;7.518;2023-01-24T11:20:28;24.27;;;9.85;;
38940;SDS011;43236;47.208;7.518;2023-01-24T11:23:18;20.88;;;9.43;;
38940;SDS011;43236;47.208;7.518;2023-01-24T11:29:14;20.02;;;9.68;;
38940;SDS011;43236;47.208;7.518;2023-01-24T11:32:05;20.10;;;10.10;;
38940;SDS011;43236;47.208;7.518;2023-01-24T11:35:11;19.67;;;9.38;;
38940;SDS011;43236;47.208;7.518;2023-01-24T11:38:11;21.02;;;9.27;;
38940;SDS011;43236;47.208;7.518;2023-01-24T11:41:09;18.25;;;8.73;;
38940;SDS011;43236;47.208;7.518;2023-01-24T11:44:04;19.52;;;9.55;;
38940;SDS011;43236;47.208;7.518;2023-01-24T11:47:20;20.55;;;9.73;;
38940;SDS011;43236;47.208;7.518;2023-01-24T11:50:20;20.83;;;10.40;;
38940;SDS011;43236;47.208;7.518;2023-01-24T11:53:21;20.15;;;10.10;;
38940;SDS011;43236;47.208;7.518;2023-01-24T11:56:19;20.85;;;10.07;;
38940;SDS011;43236;47.208;7.518;2023-01-24T11:59:17;22.13;;;10.32;;
38940;SDS011;43236;47.208;7.518;2023-01-24T12:02:44;24.10;;;10.13;;
38940;SDS011;43236;47.208;7.518;2023-01-24T12:05:59;22.45;;;10.23;;
38940;SDS011;43236;47.208;7.518;2023-01-24T12:09:09;18.33;;;9.52;;
38940;SDS011;43236;47.208;7.518;2023-01-24T12:12:05;21.85;;;10.13;;
38940;SDS011;43236;47.208;7.518;2023-01-24T12:18:07;21.33;;;10.45;;
38940;SDS011;43236;47.208;7.518;2023-01-24T12:21:19;21.63;;;10.00;;
38940;SDS011;43236;47.208;7.518;2023-01-24T12:24:08;20.63;;;10.38;;
38940;SDS011;43236;47.208;7.518;2023-01-24T12:27:02;19.48;;;9.77;;
38940;SDS011;43236;47.208;7.518;2023-01-24T12:29:55;21.60;;;10.00;;
38940;SDS011;43236;47.208;7.518;2023-01-24T12:32:45;20.67;;;10.25;;
38940;SDS011;43236;47.208;7.518;2023-01-24T12:35:37;23.80;;;10.27;;
38940;SDS011;43236;47.208;7.518;2023-01-24T12:38:29;21.33;;;10.70;;
38940;SDS011;43236;47.208;7.518;2023-01-24T12:41:26;20.48;;;10.15;;
38940;SDS011;43236;47.208;7.518;2023-01-24T12:44:25;20.85;;;10.57;;
38940;SDS011;43236;47.208;7.518;2023-01-24T12:47:22;20.23;;;9.57;;
38940;SDS011;43236;47.208;7.518;2023-01-24T12:50:20;25.08;;;9.77;;
38940;SDS011;43236;47.208;7.518;2023-01-24T12:53:12;19.80;;;10.47;;
38940;SDS011;43236;47.208;7.518;2023-01-24T12:56:08;19.30;;;9.13;;
38940;SDS011;43236;47.208;7.518;2023-01-24T12:59:00;21.15;;;10.27;;
38940;SDS011;43236;47.208;7.518;2023-01-24T13:05:17;19.42;;;9.05;;
38940;SDS011;43236;47.208;7.518;2023-01-24T13:08:17;18.52;;;9.27;;
38940;SDS011;43236;47.208;7.518;2023-01-24T13:11:19;27.60;;;9.98;;
38940;SDS011;43236;47.208;7.518;2023-01-24T13:14:13;19.27;;;9.10;;
38940;SDS011;43236;47.208;7.518;2023-01-24T13:20:34;19.20;;;9.43;;
38940;SDS011;43236;47.208;7.518;2023-01-24T13:23:55;18.23;;;8.23;;
38940;SDS011;43236;47.208;7.518;2023-01-24T13:27:09;20.35;;;10.00;;
38940;SDS011;43236;47.208;7.518;2023-01-24T13:30:11;19.38;;;8.88;;
38940;SDS011;43236;47.208;7.518;2023-01-24T13:33:10;23.77;;;10.10;;
38940;SDS011;43236;47.208;7.518;2023-01-24T13:36:03;24.40;;;11.45;;
38940;SDS011;43236;47.208;7.518;2023-01-24T13:38:52;23.08;;;10.95;;
38940;SDS011;43236;47.208;7.518;2023-01-24T13:41:40;21.27;;;9.98;;
38940;SDS011;43236;47.208;7.518;2023-01-24T13:44:28;22.45;;;10.65;;
38940;SDS011;43236;47.208;7.518;2023-01-24T13:50:22;18.50;;;9.55;;
38940;SDS011;43236;47.208;7.518;2023-01-24T13:53:10;19.85;;;8.73;;
38940;SDS011;43236;47.208;7.518;2023-01-24T13:56:00;20.92;;;10.02;;
38940;SDS011;43236;47.208;7.518;2023-01-24T13:58:49;20.52;;;9.77;;
38940;SDS011;43236;47.208;7.518;2023-01-24T14:01:43;17.80;;;9.23;;
38940;SDS011;43236;47.208;7.518;2023-01-24T14:04:38;18.38;;;8.60;;
38940;SDS011;43236;47.208;7.518;2023-01-24T14:07:27;18.58;;;8.30;;
38940;SDS011;43236;47.208;7.518;2023-01-24T14:10:16;19.10;;;9.15;;
38940;SDS011;43236;47.208;7.518;2023-01-24T14:13:03;18.65;;;8.60;;
38940;SDS011;43236;47.208;7.518;2023-01-24T14:15:51;16.70;;;8.43;;
38940;SDS011;43236;47.208;7.518;2023-01-24T14:18:41;17.27;;;9.18;;
38940;SDS011;43236;47.208;7.518;2023-01-24T14:21:44;17.55;;;8.48;;
38940;SDS011;43236;47.208;7.518;2023-01-24T14:24:34;19.27;;;9.18;;
38940;SDS011;43236;47.208;7.518;2023-01-24T14:27:25;16.95;;;8.73;;
38940;SDS011;43236;47.208;7.518;2023-01-24T14:30:35;20.65;;;8.93;;
38940;SDS011;43236;47.208;7.518;2023-01-24T14:33:36;19.95;;;9.07;;
38940;SDS011;43236;47.208;7.518;2023-01-24T14:36:32;20.60;;;9.25;;
38940;SDS011;43236;47.208;7.518;2023-01-24T14:39:24;18.85;;;8.95;;
38940;SDS011;43236;47.208;7.518;2023-01-24T14:42:12;20.75;;;9.57;;
38940;SDS011;43236;47.208;7.518;2023-01-24T14:45:01;18.23;;;8.75;;
38940;SDS011;43236;47.208;7.518;2023-01-24T14:47:48;17.02;;;8.75;;
38940;SDS011;43236;47.208;7.518;2023-01-24T14:50:37;20.45;;;9.13;;
38940;SDS011;43236;47.208;7.518;2023-01-24T14:53:25;17.75;;;9.07;;
38940;SDS011;43236;47.208;7.518;2023-01-24T14:56:15;19.45;;;8.82;;
38940;SDS011;43236;47.208;7.518;2023-01-24T14:59:12;20.25;;;8.95;;
38940;SDS011;43236;47.208;7.518;2023-01-24T15:02:00;19.67;;;9.15;;
38940;SDS011;43236;47.208;7.518;2023-01-24T15:04:47;19.75;;;9.32;;
38940;SDS011;43236;47.208;7.518;2023-01-24T15:07:35;19.25;;;9.35;;
38940;SDS011;43236;47.208;7.518;2023-01-24T15:10:31;23.33;;;9.50;;
38940;SDS011;43236;47.208;7.518;2023-01-24T15:13:23;22.30;;;10.02;;
38940;SDS011;43236;47.208;7.518;2023-01-24T15:16:15;18.27;;;9.52;;
38940;SDS011;43236;47.208;7.518;2023-01-24T15:19:05;18.35;;;9.25;;
38940;SDS011;43236;47.208;7.518;2023-01-24T15:21:56;19.02;;;9.60;;
38940;SDS011;43236;47.208;7.518;2023-01-24T15:24:47;18.55;;;9.07;;
38940;SDS011;43236;47.208;7.518;2023-01-24T15:27:37;18.13;;;8.90;;
38940;SDS011;43236;47.208;7.518;2023-01-24T15:30:29;21.10;;;9.55;;
38940;SDS011;43236;47.208;7.518;2023-01-24T15:33:16;22.40;;;10.57;;
38940;SDS011;43236;47.208;7.518;2023-01-24T15:36:03;26.67;;;12.35;;
38940;SDS011;43236;47.208;7.518;2023-01-24T15:38:50;26.60;;;10.45;;
38940;SDS011;43236;47.208;7.518;2023-01-24T15:41:40;19.88;;;9.77;;
38940;SDS011;43236;47.208;7.518;2023-01-24T15:47:33;19.60;;;8.88;;
38940;SDS011;43236;47.208;7.518;2023-01-24T15:50:32;19.95;;;9.57;;
38940;SDS011;43236;47.208;7.518;2023-01-24T15:53:37;20.52;;;9.90;;
38940;SDS011;43236;47.208;7.518;2023-01-24T15:56:25;21.38;;;10.13;;
38940;SDS011;43236;47.208;7.518;2023-01-24T15:59:14;18.20;;;9.57;;
38940;SDS011;43236;47.208;7.518;2023-01-24T16:02:02;21.25;;;9.43;;
38940;SDS011;43236;47.208;7.518;2023-01-24T16:04:59;19.45;;;9.85;;
38940;SDS011;43236;47.208;7.518;2023-01-24T16:07:47;20.88;;;10.10;;
38940;SDS011;43236;47.208;7.518;2023-01-24T16:10:34;18.92;;;10.00;;
38940;SDS011;43236;47.208;7.518;2023-01-24T16:13:25;19.60;;;9.00;;
38940;SDS011;43236;47.208;7.518;2023-01-24T16:16:14;28.75;;;11.50;;
38940;SDS011;43236;47.208;7.518;2023-01-24T16:19:02;24.30;;;10.05;;
38940;SDS011;43236;47.208;7.518;2023-01-24T16:21:55;19.50;;;9.40;;
38940;SDS011;43236;47.208;7.518;2023-01-24T16:24:42;20.60;;;9.38;;
38940;SDS011;43236;47.208;7.518;2023-01-24T16:27:29;18.30;;;8.52;;
38940;SDS011;43236;47.208;7.518;2023-01-24T16:30:18;25.27;;;13.57;;
38940;SDS011;43236;47.208;7.518;2023-01-24T16:33:07;20.98;;;9.48;;
38940;SDS011;43236;47.208;7.518;2023-01-24T16:35:54;18.52;;;9.23;;
38940;SDS011;43236;47.208;7.518;2023-01-24T16:38:43;19.25;;;9.25;;
38940;SDS011;43236;47.208;7.518;2023-01-24T16:41:31;20.25;;;8.73;;
38940;SDS011;43236;47.208;7.518;2023-01-24T16:44:18;19.92;;;9.25;;
38940;SDS011;43236;47.208;7.518;2023-01-24T16:47:05;21.55;;;8.93;;
38940;SDS011;43236;47.208;7.518;2023-01-24T16:49:53;18.88;;;9.27;;
38940;SDS011;43236;47.208;7.518;2023-01-24T16:52:40;17.73;;;8.43;;
38940;SDS011;43236;47.208;7.518;2023-01-24T16:55:29;20.05;;;9.02;;
38940;SDS011;43236;47.208;7.518;2023-01-24T16:58:18;18.27;;;9.20;;
38940;SDS011;43236;47.208;7.518;2023-01-24T17:01:06;20.40;;;9.30;;
38940;SDS011;43236;47.208;7.518;2023-01-24T17:03:54;19.38;;;9.40;;
38940;SDS011;43236;47.208;7.518;2023-01-24T17:06:41;20.83;;;9.90;;
38940;SDS011;43236;47.208;7.518;2023-01-24T17:09:28;21.15;;;9.38;;